sensor_id;sensor_type;location;lat;lon;timestamp;P1;durP1;ratioP1;P2;durP2;ratioP2
56670;SDS011;42545;50.054;8.306;2023-04-29T00:00:04;0.60;;;0.60;;
56670;SDS011;42545;50.054;8.306;2023-04-29T00:02:32;0.63;;;0.63;;
56670;SDS011;42545;50.054;8.306;2023-04-29T00:04:59;0.70;;;0.70;;
56670;SDS011;42545;50.054;8.306;2023-04-29T00:07:30;0.70;;;0.70;;
56670;SDS011;42545;50.054;8.306;2023-04-29T00:09:57;0.60;;;0.60;;
56670;SDS011;42545;50.054;8.306;2023-04-29T00:12:24;0.90;;;0.90;;
56670;SDS011;42545;50.054;8.306;2023-04-29T00:14:52;1.00;;;0.90;;
56670;SDS011;42545;50.054;8.306;2023-04-29T00:17:18;0.77;;;0.77;;
56670;SDS011;42545;50.054;8.306;2023-04-29T00:19:45;0.70;;;0.70;;
56670;SDS011;42545;50.054;8.306;2023-04-29T00:22:12;0.85;;;0.70;;
56670;SDS011;42545;50.054;8.306;2023-04-29T00:24:40;0.80;;;0.80;;
56670;SDS011;42545;50.054;8.306;2023-04-29T00:27:07;0.70;;;0.70;;
56670;SDS011;42545;50.054;8.306;2023-04-29T00:29:35;0.60;;;0.60;;
56670;SDS011;42545;50.054;8.306;2023-04-29T00:32:02;0.70;;;0.70;;
56670;SDS011;42545;50.054;8.306;2023-04-29T00:34:29;0.60;;;0.60;;
56670;SDS011;42545;50.054;8.306;2023-04-29T00:36:56;0.60;;;0.60;;
56670;SDS011;42545;50.054;8.306;2023-04-29T00:39:22;0.80;;;0.77;;
56670;SDS011;42545;50.054;8.306;2023-04-29T00:41:51;0.80;;;0.77;;
56670;SDS011;42545;50.054;8.306;2023-04-29T00:44:18;1.80;;;1.40;;
56670;SDS011;42545;50.054;8.306;2023-04-29T00:46:44;2.15;;;1.73;;
56670;SDS011;42545;50.054;8.306;2023-04-29T00:49:11;1.60;;;1.30;;
56670;SDS011;42545;50.054;8.306;2023-04-29T00:51:40;1.30;;;1.20;;
56670;SDS011;42545;50.054;8.306;2023-04-29T00:54:07;1.35;;;1.20;;
56670;SDS011;42545;50.054;8.306;2023-04-29T00:56:35;1.20;;;1.10;;
56670;SDS011;42545;50.054;8.306;2023-04-29T00:59:07;1.35;;;1.23;;
56670;SDS011;42545;50.054;8.306;2023-04-29T01:01:35;1.30;;;1.05;;
56670;SDS011;42545;50.054;8.306;2023-04-29T01:04:02;0.90;;;0.90;;
56670;SDS011;42545;50.054;8.306;2023-04-29T01:06:33;1.02;;;1.02;;
56670;SDS011;42545;50.054;8.306;2023-04-29T01:09:16;1.08;;;0.98;;
56670;SDS011;42545;50.054;8.306;2023-04-29T01:11:54;1.33;;;1.23;;
56670;SDS011;42545;50.054;8.306;2023-04-29T01:14:32;1.20;;;1.10;;
56670;SDS011;42545;50.054;8.306;2023-04-29T01:17:00;0.80;;;0.80;;
56670;SDS011;42545;50.054;8.306;2023-04-29T01:19:36;1.20;;;1.10;;
56670;SDS011;42545;50.054;8.306;2023-04-29T01:22:10;0.80;;;0.80;;
56670;SDS011;42545;50.054;8.306;2023-04-29T01:24:40;0.80;;;0.80;;
56670;SDS011;42545;50.054;8.306;2023-04-29T01:27:09;0.70;;;0.70;;
56670;SDS011;42545;50.054;8.306;2023-04-29T01:29:47;0.75;;;0.75;;
56670;SDS011;42545;50.054;8.306;2023-04-29T01:32:21;0.70;;;0.70;;
56670;SDS011;42545;50.054;8.306;2023-04-29T01:34:58;0.70;;;0.70;;
56670;SDS011;42545;50.054;8.306;2023-04-29T01:37:38;0.70;;;0.70;;
56670;SDS011;42545;50.054;8.306;2023-04-29T01:40:11;0.80;;;0.80;;
56670;SDS011;42545;50.054;8.306;2023-04-29T01:42:43;0.60;;;0.60;;
56670;SDS011;42545;50.054;8.306;2023-04-29T01:45:12;0.60;;;0.60;;
56670;SDS011;42545;50.054;8.306;2023-04-29T01:47:41;0.70;;;0.70;;
56670;SDS011;42545;50.054;8.306;2023-04-29T01:50:08;0.60;;;0.60;;
56670;SDS011;42545;50.054;8.306;2023-04-29T01:52:35;0.57;;;0.57;;
56670;SDS011;42545;50.054;8.306;2023-04-29T01:55:03;0.50;;;0.50;;
56670;SDS011;42545;50.054;8.306;2023-04-29T01:57:31;0.70;;;0.70;;
56670;SDS011;42545;50.054;8.306;2023-04-29T01:59:58;0.75;;;0.75;;
56670;SDS011;42545;50.054;8.306;2023-04-29T02:02:26;0.70;;;0.70;;
56670;SDS011;42545;50.054;8.306;2023-04-29T02:04:52;1.00;;;0.90;;
56670;SDS011;42545;50.054;8.306;2023-04-29T02:07:19;0.60;;;0.60;;
56670;SDS011;42545;50.054;8.306;2023-04-29T02:09:46;0.63;;;0.63;;
56670;SDS011;42545;50.054;8.306;2023-04-29T02:12:13;0.82;;;0.82;;
56670;SDS011;42545;50.054;8.306;2023-04-29T02:14:41;1.70;;;1.40;;
56670;SDS011;42545;50.054;8.306;2023-04-29T02:17:08;1.20;;;1.10;;
56670;SDS011;42545;50.054;8.306;2023-04-29T02:19:34;2.20;;;1.63;;
56670;SDS011;42545;50.054;8.306;2023-04-29T02:22:01;4.22;;;2.78;;
56670;SDS011;42545;50.054;8.306;2023-04-29T02:24:27;3.00;;;2.30;;
56670;SDS011;42545;50.054;8.306;2023-04-29T02:26:54;2.58;;;2.20;;
56670;SDS011;42545;50.054;8.306;2023-04-29T02:29:21;3.55;;;2.60;;
56670;SDS011;42545;50.054;8.306;2023-04-29T02:31:49;2.53;;;2.33;;
56670;SDS011;42545;50.054;8.306;2023-04-29T02:34:15;2.22;;;1.98;;
56670;SDS011;42545;50.054;8.306;2023-04-29T02:36:42;2.33;;;2.05;;
56670;SDS011;42545;50.054;8.306;2023-04-29T02:39:09;3.22;;;2.15;;
56670;SDS011;42545;50.054;8.306;2023-04-29T02:41:35;1.70;;;1.60;;
56670;SDS011;42545;50.054;8.306;2023-04-29T02:44:02;2.80;;;2.13;;
56670;SDS011;42545;50.054;8.306;2023-04-29T02:46:28;2.22;;;1.85;;
56670;SDS011;42545;50.054;8.306;2023-04-29T02:48:58;3.47;;;2.30;;
56670;SDS011;42545;50.054;8.306;2023-04-29T02:51:26;2.38;;;2.17;;
56670;SDS011;42545;50.054;8.306;2023-04-29T02:53:53;2.13;;;1.92;;
56670;SDS011;42545;50.054;8.306;2023-04-29T02:56:19;2.05;;;1.85;;
56670;SDS011;42545;50.054;8.306;2023-04-29T02:58:47;1.63;;;1.52;;
56670;SDS011;42545;50.054;8.306;2023-04-29T03:01:14;2.45;;;2.00;;
56670;SDS011;42545;50.054;8.306;2023-04-29T03:03:40;5.95;;;3.50;;
56670;SDS011;42545;50.054;8.306;2023-04-29T03:06:09;2.80;;;2.55;;
56670;SDS011;42545;50.054;8.306;2023-04-29T03:08:35;4.45;;;3.28;;
56670;SDS011;42545;50.054;8.306;2023-04-29T03:11:02;5.22;;;3.65;;
56670;SDS011;42545;50.054;8.306;2023-04-29T03:13:29;5.35;;;4.63;;
56670;SDS011;42545;50.054;8.306;2023-04-29T03:15:55;3.45;;;3.15;;
56670;SDS011;42545;50.054;8.306;2023-04-29T03:18:24;5.13;;;4.07;;
56670;SDS011;42545;50.054;8.306;2023-04-29T03:20:51;7.45;;;4.82;;
56670;SDS011;42545;50.054;8.306;2023-04-29T03:23:19;5.47;;;4.25;;
56670;SDS011;42545;50.054;8.306;2023-04-29T03:25:46;4.85;;;4.03;;
56670;SDS011;42545;50.054;8.306;2023-04-29T03:28:13;5.68;;;4.10;;
56670;SDS011;42545;50.054;8.306;2023-04-29T03:30:40;7.78;;;5.28;;
56670;SDS011;42545;50.054;8.306;2023-04-29T03:33:07;7.10;;;5.38;;
56670;SDS011;42545;50.054;8.306;2023-04-29T03:35:33;7.28;;;5.40;;
56670;SDS011;42545;50.054;8.306;2023-04-29T03:38:00;10.48;;;6.72;;
56670;SDS011;42545;50.054;8.306;2023-04-29T03:40:28;6.97;;;5.47;;
56670;SDS011;42545;50.054;8.306;2023-04-29T03:42:55;9.32;;;6.18;;
56670;SDS011;42545;50.054;8.306;2023-04-29T03:45:21;7.47;;;5.00;;
56670;SDS011;42545;50.054;8.306;2023-04-29T03:47:48;5.55;;;4.45;;
56670;SDS011;42545;50.054;8.306;2023-04-29T03:50:15;5.28;;;3.65;;
56670;SDS011;42545;50.054;8.306;2023-04-29T03:52:42;5.88;;;4.22;;
56670;SDS011;42545;50.054;8.306;2023-04-29T03:55:09;5.70;;;3.97;;
56670;SDS011;42545;50.054;8.306;2023-04-29T03:57:38;5.45;;;3.67;;
56670;SDS011;42545;50.054;8.306;2023-04-29T04:00:05;4.38;;;3.42;;
56670;SDS011;42545;50.054;8.306;2023-04-29T04:02:33;3.72;;;3.17;;
56670;SDS011;42545;50.054;8.306;2023-04-29T04:05:00;7.65;;;5.43;;
56670;SDS011;42545;50.054;8.306;2023-04-29T04:07:26;8.80;;;6.07;;
56670;SDS011;42545;50.054;8.306;2023-04-29T04:09:53;7.55;;;5.32;;
56670;SDS011;42545;50.054;8.306;2023-04-29T04:12:20;8.88;;;6.68;;
56670;SDS011;42545;50.054;8.306;2023-04-29T04:14:47;11.25;;;6.88;;
56670;SDS011;42545;50.054;8.306;2023-04-29T04:17:14;11.75;;;6.65;;
56670;SDS011;42545;50.054;8.306;2023-04-29T04:19:41;7.85;;;5.50;;
56670;SDS011;42545;50.054;8.306;2023-04-29T04:22:07;7.65;;;5.30;;
56670;SDS011;42545;50.054;8.306;2023-04-29T04:24:35;6.72;;;5.07;;
56670;SDS011;42545;50.054;8.306;2023-04-29T04:27:02;5.57;;;4.47;;
56670;SDS011;42545;50.054;8.306;2023-04-29T04:29:29;6.97;;;4.97;;
56670;SDS011;42545;50.054;8.306;2023-04-29T04:31:57;7.15;;;5.75;;
56670;SDS011;42545;50.054;8.306;2023-04-29T04:34:24;7.68;;;4.90;;
56670;SDS011;42545;50.054;8.306;2023-04-29T04:36:51;7.53;;;5.18;;
56670;SDS011;42545;50.054;8.306;2023-04-29T04:39:17;6.35;;;4.63;;
56670;SDS011;42545;50.054;8.306;2023-04-29T04:41:44;6.63;;;5.10;;
56670;SDS011;42545;50.054;8.306;2023-04-29T04:44:10;7.80;;;4.90;;
56670;SDS011;42545;50.054;8.306;2023-04-29T04:46:38;8.95;;;6.28;;
56670;SDS011;42545;50.054;8.306;2023-04-29T04:49:06;7.13;;;5.15;;
56670;SDS011;42545;50.054;8.306;2023-04-29T04:51:33;6.97;;;5.03;;
56670;SDS011;42545;50.054;8.306;2023-04-29T04:53:59;6.20;;;4.22;;
56670;SDS011;42545;50.054;8.306;2023-04-29T04:56:26;6.22;;;4.55;;
56670;SDS011;42545;50.054;8.306;2023-04-29T04:58:52;15.55;;;10.38;;
56670;SDS011;42545;50.054;8.306;2023-04-29T05:01:19;13.80;;;9.45;;
56670;SDS011;42545;50.054;8.306;2023-04-29T05:03:46;15.13;;;9.73;;
56670;SDS011;42545;50.054;8.306;2023-04-29T05:06:14;13.43;;;8.65;;
56670;SDS011;42545;50.054;8.306;2023-04-29T05:08:41;16.00;;;10.02;;
56670;SDS011;42545;50.054;8.306;2023-04-29T05:11:14;14.18;;;9.68;;
56670;SDS011;42545;50.054;8.306;2023-04-29T05:13:43;11.57;;;8.23;;
56670;SDS011;42545;50.054;8.306;2023-04-29T05:16:10;12.30;;;8.07;;
56670;SDS011;42545;50.054;8.306;2023-04-29T05:18:36;10.40;;;7.60;;
56670;SDS011;42545;50.054;8.306;2023-04-29T05:21:03;16.25;;;8.90;;
56670;SDS011;42545;50.054;8.306;2023-04-29T05:23:31;11.60;;;7.28;;
56670;SDS011;42545;50.054;8.306;2023-04-29T05:25:58;14.43;;;8.88;;
56670;SDS011;42545;50.054;8.306;2023-04-29T05:28:24;10.43;;;6.45;;
56670;SDS011;42545;50.054;8.306;2023-04-29T05:30:51;12.85;;;9.07;;
56670;SDS011;42545;50.054;8.306;2023-04-29T05:33:17;15.75;;;9.55;;
56670;SDS011;42545;50.054;8.306;2023-04-29T05:35:44;11.80;;;7.95;;
56670;SDS011;42545;50.054;8.306;2023-04-29T05:38:12;10.77;;;7.35;;
56670;SDS011;42545;50.054;8.306;2023-04-29T05:40:40;11.80;;;7.63;;
56670;SDS011;42545;50.054;8.306;2023-04-29T05:43:07;11.32;;;6.95;;
56670;SDS011;42545;50.054;8.306;2023-04-29T05:45:34;11.43;;;7.43;;
56670;SDS011;42545;50.054;8.306;2023-04-29T05:48:00;9.60;;;6.60;;
56670;SDS011;42545;50.054;8.306;2023-04-29T05:50:27;12.90;;;8.32;;
56670;SDS011;42545;50.054;8.306;2023-04-29T05:52:53;10.07;;;7.07;;
56670;SDS011;42545;50.054;8.306;2023-04-29T05:55:20;11.60;;;7.63;;
56670;SDS011;42545;50.054;8.306;2023-04-29T05:57:49;11.32;;;7.10;;
56670;SDS011;42545;50.054;8.306;2023-04-29T06:00:16;12.18;;;6.72;;
56670;SDS011;42545;50.054;8.306;2023-04-29T06:02:42;9.52;;;6.40;;
56670;SDS011;42545;50.054;8.306;2023-04-29T06:05:09;9.93;;;6.53;;
56670;SDS011;42545;50.054;8.306;2023-04-29T06:07:37;10.18;;;5.90;;
56670;SDS011;42545;50.054;8.306;2023-04-29T06:10:05;5.82;;;4.43;;
56670;SDS011;42545;50.054;8.306;2023-04-29T06:12:32;8.10;;;5.22;;
56670;SDS011;42545;50.054;8.306;2023-04-29T06:15:01;6.82;;;4.75;;
56670;SDS011;42545;50.054;8.306;2023-04-29T06:17:28;6.13;;;4.65;;
56670;SDS011;42545;50.054;8.306;2023-04-29T06:19:55;9.02;;;4.85;;
56670;SDS011;42545;50.054;8.306;2023-04-29T06:22:21;7.32;;;4.75;;
56670;SDS011;42545;50.054;8.306;2023-04-29T06:24:48;6.53;;;4.25;;
56670;SDS011;42545;50.054;8.306;2023-04-29T06:27:16;4.75;;;3.53;;
56670;SDS011;42545;50.054;8.306;2023-04-29T06:29:42;7.82;;;4.57;;
56670;SDS011;42545;50.054;8.306;2023-04-29T06:32:11;6.97;;;4.50;;
56670;SDS011;42545;50.054;8.306;2023-04-29T06:34:38;7.40;;;4.90;;
56670;SDS011;42545;50.054;8.306;2023-04-29T06:37:05;6.00;;;4.13;;
56670;SDS011;42545;50.054;8.306;2023-04-29T06:39:31;7.05;;;4.07;;
56670;SDS011;42545;50.054;8.306;2023-04-29T06:41:58;8.27;;;5.00;;
56670;SDS011;42545;50.054;8.306;2023-04-29T06:44:25;7.32;;;4.90;;
56670;SDS011;42545;50.054;8.306;2023-04-29T06:46:52;6.15;;;4.25;;
56670;SDS011;42545;50.054;8.306;2023-04-29T06:49:21;6.35;;;4.13;;
56670;SDS011;42545;50.054;8.306;2023-04-29T06:51:55;5.35;;;3.75;;
56670;SDS011;42545;50.054;8.306;2023-04-29T06:54:23;6.88;;;4.72;;
56670;SDS011;42545;50.054;8.306;2023-04-29T06:56:51;5.45;;;3.92;;
56670;SDS011;42545;50.054;8.306;2023-04-29T06:59:18;6.32;;;4.18;;
56670;SDS011;42545;50.054;8.306;2023-04-29T07:01:45;5.72;;;4.00;;
56670;SDS011;42545;50.054;8.306;2023-04-29T07:04:11;4.97;;;3.72;;
56670;SDS011;42545;50.054;8.306;2023-04-29T07:06:39;5.40;;;3.70;;
56670;SDS011;42545;50.054;8.306;2023-04-29T07:09:10;4.78;;;3.40;;
56670;SDS011;42545;50.054;8.306;2023-04-29T07:11:37;4.55;;;3.30;;
56670;SDS011;42545;50.054;8.306;2023-04-29T07:14:04;4.75;;;3.20;;
56670;SDS011;42545;50.054;8.306;2023-04-29T07:16:31;5.30;;;3.80;;
56670;SDS011;42545;50.054;8.306;2023-04-29T07:18:58;8.85;;;5.15;;
56670;SDS011;42545;50.054;8.306;2023-04-29T07:21:25;6.05;;;4.45;;
56670;SDS011;42545;50.054;8.306;2023-04-29T07:23:53;5.13;;;3.53;;
56670;SDS011;42545;50.054;8.306;2023-04-29T07:26:20;4.93;;;3.42;;
56670;SDS011;42545;50.054;8.306;2023-04-29T07:28:47;8.70;;;5.15;;
56670;SDS011;42545;50.054;8.306;2023-04-29T07:31:14;5.28;;;3.85;;
56670;SDS011;42545;50.054;8.306;2023-04-29T07:33:41;7.70;;;5.05;;
56670;SDS011;42545;50.054;8.306;2023-04-29T07:36:09;10.32;;;6.45;;
56670;SDS011;42545;50.054;8.306;2023-04-29T07:38:36;7.13;;;4.30;;
56670;SDS011;42545;50.054;8.306;2023-04-29T07:41:04;6.25;;;4.18;;
56670;SDS011;42545;50.054;8.306;2023-04-29T07:43:31;4.93;;;3.25;;
56670;SDS011;42545;50.054;8.306;2023-04-29T07:45:58;5.40;;;3.80;;
56670;SDS011;42545;50.054;8.306;2023-04-29T07:48:27;5.83;;;3.90;;
56670;SDS011;42545;50.054;8.306;2023-04-29T07:50:55;6.70;;;4.07;;
56670;SDS011;42545;50.054;8.306;2023-04-29T07:53:22;5.38;;;3.47;;
56670;SDS011;42545;50.054;8.306;2023-04-29T07:55:49;4.18;;;3.25;;
56670;SDS011;42545;50.054;8.306;2023-04-29T07:58:18;6.88;;;4.13;;
56670;SDS011;42545;50.054;8.306;2023-04-29T08:00:44;5.10;;;3.38;;
56670;SDS011;42545;50.054;8.306;2023-04-29T08:03:11;8.20;;;5.28;;
56670;SDS011;42545;50.054;8.306;2023-04-29T08:05:39;5.18;;;4.00;;
56670;SDS011;42545;50.054;8.306;2023-04-29T08:08:07;6.47;;;3.85;;
56670;SDS011;42545;50.054;8.306;2023-04-29T08:10:36;5.50;;;3.78;;
56670;SDS011;42545;50.054;8.306;2023-04-29T08:13:05;6.10;;;3.90;;
56670;SDS011;42545;50.054;8.306;2023-04-29T08:15:33;3.88;;;3.03;;
56670;SDS011;42545;50.054;8.306;2023-04-29T08:18:00;4.68;;;3.08;;
56670;SDS011;42545;50.054;8.306;2023-04-29T08:20:29;5.47;;;3.35;;
56670;SDS011;42545;50.054;8.306;2023-04-29T08:22:57;7.82;;;5.03;;
56670;SDS011;42545;50.054;8.306;2023-04-29T08:25:23;8.07;;;4.90;;
56670;SDS011;42545;50.054;8.306;2023-04-29T08:27:52;4.85;;;3.45;;
56670;SDS011;42545;50.054;8.306;2023-04-29T08:30:19;6.75;;;4.68;;
56670;SDS011;42545;50.054;8.306;2023-04-29T08:32:47;4.88;;;3.60;;
56670;SDS011;42545;50.054;8.306;2023-04-29T08:35:13;6.72;;;4.20;;
56670;SDS011;42545;50.054;8.306;2023-04-29T08:37:40;5.05;;;3.50;;
56670;SDS011;42545;50.054;8.306;2023-04-29T08:40:08;3.97;;;3.20;;
56670;SDS011;42545;50.054;8.306;2023-04-29T08:42:36;4.82;;;3.40;;
56670;SDS011;42545;50.054;8.306;2023-04-29T08:45:03;4.32;;;3.10;;
56670;SDS011;42545;50.054;8.306;2023-04-29T08:47:31;4.45;;;3.15;;
56670;SDS011;42545;50.054;8.306;2023-04-29T08:50:01;4.93;;;3.00;;
56670;SDS011;42545;50.054;8.306;2023-04-29T08:52:30;6.45;;;4.47;;
56670;SDS011;42545;50.054;8.306;2023-04-29T08:54:57;5.57;;;3.88;;
56670;SDS011;42545;50.054;8.306;2023-04-29T08:57:28;4.60;;;3.22;;
56670;SDS011;42545;50.054;8.306;2023-04-29T09:00:03;5.07;;;3.63;;
56670;SDS011;42545;50.054;8.306;2023-04-29T09:02:34;3.50;;;2.67;;
56670;SDS011;42545;50.054;8.306;2023-04-29T09:05:08;5.20;;;3.10;;
56670;SDS011;42545;50.054;8.306;2023-04-29T09:07:37;4.40;;;3.03;;
56670;SDS011;42545;50.054;8.306;2023-04-29T09:10:05;5.43;;;3.47;;
56670;SDS011;42545;50.054;8.306;2023-04-29T09:12:33;3.85;;;2.90;;
56670;SDS011;42545;50.054;8.306;2023-04-29T09:15:00;4.78;;;3.55;;
56670;SDS011;42545;50.054;8.306;2023-04-29T09:17:39;3.78;;;2.72;;
56670;SDS011;42545;50.054;8.306;2023-04-29T09:20:26;3.42;;;2.58;;
56670;SDS011;42545;50.054;8.306;2023-04-29T09:22:55;4.53;;;2.95;;
56670;SDS011;42545;50.054;8.306;2023-04-29T09:25:26;4.55;;;3.10;;
56670;SDS011;42545;50.054;8.306;2023-04-29T09:27:53;5.03;;;2.92;;
56670;SDS011;42545;50.054;8.306;2023-04-29T09:30:21;5.57;;;3.63;;
56670;SDS011;42545;50.054;8.306;2023-04-29T09:33:03;3.95;;;2.90;;
56670;SDS011;42545;50.054;8.306;2023-04-29T09:35:33;4.18;;;2.65;;
56670;SDS011;42545;50.054;8.306;2023-04-29T09:38:10;3.47;;;2.45;;
56670;SDS011;42545;50.054;8.306;2023-04-29T09:40:39;3.42;;;2.15;;
56670;SDS011;42545;50.054;8.306;2023-04-29T09:43:11;4.00;;;2.60;;
56670;SDS011;42545;50.054;8.306;2023-04-29T09:45:39;5.10;;;3.00;;
56670;SDS011;42545;50.054;8.306;2023-04-29T09:48:10;4.85;;;3.17;;
56670;SDS011;42545;50.054;8.306;2023-04-29T09:50:39;3.38;;;2.40;;
56670;SDS011;42545;50.054;8.306;2023-04-29T09:53:09;3.20;;;2.25;;
56670;SDS011;42545;50.054;8.306;2023-04-29T09:55:41;3.78;;;2.50;;
56670;SDS011;42545;50.054;8.306;2023-04-29T09:58:26;3.35;;;2.75;;
56670;SDS011;42545;50.054;8.306;2023-04-29T10:00:56;4.00;;;2.67;;
56670;SDS011;42545;50.054;8.306;2023-04-29T10:03:25;3.80;;;2.97;;
56670;SDS011;42545;50.054;8.306;2023-04-29T10:05:55;3.33;;;2.63;;
56670;SDS011;42545;50.054;8.306;2023-04-29T10:08:23;3.83;;;2.65;;
56670;SDS011;42545;50.054;8.306;2023-04-29T10:10:52;4.57;;;3.28;;
56670;SDS011;42545;50.054;8.306;2023-04-29T10:13:21;3.97;;;2.40;;
56670;SDS011;42545;50.054;8.306;2023-04-29T10:15:50;3.65;;;2.72;;
56670;SDS011;42545;50.054;8.306;2023-04-29T10:18:33;3.95;;;2.70;;
56670;SDS011;42545;50.054;8.306;2023-04-29T10:21:03;3.13;;;2.35;;
56670;SDS011;42545;50.054;8.306;2023-04-29T10:23:33;3.70;;;2.80;;
56670;SDS011;42545;50.054;8.306;2023-04-29T10:26:01;3.03;;;2.22;;
56670;SDS011;42545;50.054;8.306;2023-04-29T10:28:29;2.20;;;1.95;;
56670;SDS011;42545;50.054;8.306;2023-04-29T10:30:58;2.53;;;1.88;;
56670;SDS011;42545;50.054;8.306;2023-04-29T10:33:28;3.95;;;2.50;;
56670;SDS011;42545;50.054;8.306;2023-04-29T10:35:57;2.75;;;2.22;;
56670;SDS011;42545;50.054;8.306;2023-04-29T10:38:27;3.40;;;2.00;;
56670;SDS011;42545;50.054;8.306;2023-04-29T10:40:56;3.13;;;1.80;;
56670;SDS011;42545;50.054;8.306;2023-04-29T10:43:25;1.75;;;1.52;;
56670;SDS011;42545;50.054;8.306;2023-04-29T10:48:43;2.63;;;2.03;;
56670;SDS011;42545;50.054;8.306;2023-04-29T10:51:10;2.50;;;1.77;;
56670;SDS011;42545;50.054;8.306;2023-04-29T10:56:36;2.47;;;1.40;;
56670;SDS011;42545;50.054;8.306;2023-04-29T10:59:04;1.95;;;1.58;;
56670;SDS011;42545;50.054;8.306;2023-04-29T11:01:44;1.83;;;1.50;;
56670;SDS011;42545;50.054;8.306;2023-04-29T11:04:12;2.25;;;1.90;;
56670;SDS011;42545;50.054;8.306;2023-04-29T11:06:41;1.40;;;1.30;;
56670;SDS011;42545;50.054;8.306;2023-04-29T11:09:13;1.77;;;1.45;;
56670;SDS011;42545;50.054;8.306;2023-04-29T11:11:47;2.00;;;1.40;;
56670;SDS011;42545;50.054;8.306;2023-04-29T11:14:23;2.00;;;1.50;;
56670;SDS011;42545;50.054;8.306;2023-04-29T11:16:51;1.90;;;1.40;;
56670;SDS011;42545;50.054;8.306;2023-04-29T11:19:19;2.25;;;1.83;;
56670;SDS011;42545;50.054;8.306;2023-04-29T11:21:46;2.75;;;1.90;;
56670;SDS011;42545;50.054;8.306;2023-04-29T11:24:14;2.92;;;2.40;;
56670;SDS011;42545;50.054;8.306;2023-04-29T11:26:43;2.95;;;2.30;;
56670;SDS011;42545;50.054;8.306;2023-04-29T11:29:10;2.20;;;1.90;;
56670;SDS011;42545;50.054;8.306;2023-04-29T11:31:38;9.07;;;4.60;;
56670;SDS011;42545;50.054;8.306;2023-04-29T11:34:05;8.27;;;6.50;;
56670;SDS011;42545;50.054;8.306;2023-04-29T11:36:33;5.55;;;4.40;;
56670;SDS011;42545;50.054;8.306;2023-04-29T11:39:01;5.32;;;3.75;;
56670;SDS011;42545;50.054;8.306;2023-04-29T11:41:31;4.63;;;3.78;;
56670;SDS011;42545;50.054;8.306;2023-04-29T11:43:59;3.88;;;3.08;;
56670;SDS011;42545;50.054;8.306;2023-04-29T11:46:29;3.22;;;2.80;;
56670;SDS011;42545;50.054;8.306;2023-04-29T11:48:56;4.68;;;3.38;;
56670;SDS011;42545;50.054;8.306;2023-04-29T11:51:24;4.63;;;4.20;;
56670;SDS011;42545;50.054;8.306;2023-04-29T11:53:52;4.03;;;3.08;;
56670;SDS011;42545;50.054;8.306;2023-04-29T11:56:20;3.25;;;2.55;;
56670;SDS011;42545;50.054;8.306;2023-04-29T11:58:54;2.17;;;1.98;;
56670;SDS011;42545;50.054;8.306;2023-04-29T12:01:22;2.38;;;2.10;;
56670;SDS011;42545;50.054;8.306;2023-04-29T12:03:55;4.07;;;2.92;;
56670;SDS011;42545;50.054;8.306;2023-04-29T12:06:26;3.30;;;2.38;;
56670;SDS011;42545;50.054;8.306;2023-04-29T12:08:53;2.70;;;2.10;;
56670;SDS011;42545;50.054;8.306;2023-04-29T12:11:19;2.17;;;1.90;;
56670;SDS011;42545;50.054;8.306;2023-04-29T12:13:49;2.20;;;1.83;;
56670;SDS011;42545;50.054;8.306;2023-04-29T12:16:18;1.60;;;1.50;;
56670;SDS011;42545;50.054;8.306;2023-04-29T12:18:45;1.80;;;1.50;;
56670;SDS011;42545;50.054;8.306;2023-04-29T12:21:12;2.10;;;1.70;;
56670;SDS011;42545;50.054;8.306;2023-04-29T12:23:39;2.05;;;1.67;;
56670;SDS011;42545;50.054;8.306;2023-04-29T12:26:06;2.30;;;2.05;;
56670;SDS011;42545;50.054;8.306;2023-04-29T12:28:34;3.45;;;2.72;;
56670;SDS011;42545;50.054;8.306;2023-04-29T12:31:02;2.10;;;1.90;;
56670;SDS011;42545;50.054;8.306;2023-04-29T12:33:30;3.38;;;2.22;;
56670;SDS011;42545;50.054;8.306;2023-04-29T12:35:57;2.50;;;2.15;;
56670;SDS011;42545;50.054;8.306;2023-04-29T12:38:26;2.80;;;2.50;;
56670;SDS011;42545;50.054;8.306;2023-04-29T12:40:58;3.50;;;2.50;;
56670;SDS011;42545;50.054;8.306;2023-04-29T12:43:48;3.22;;;1.88;;
56670;SDS011;42545;50.054;8.306;2023-04-29T12:46:15;3.03;;;2.30;;
56670;SDS011;42545;50.054;8.306;2023-04-29T12:48:44;2.13;;;1.80;;
56670;SDS011;42545;50.054;8.306;2023-04-29T12:51:12;2.42;;;2.20;;
56670;SDS011;42545;50.054;8.306;2023-04-29T12:53:39;3.72;;;2.80;;
56670;SDS011;42545;50.054;8.306;2023-04-29T12:56:06;2.17;;;1.98;;
56670;SDS011;42545;50.054;8.306;2023-04-29T12:58:33;3.22;;;2.22;;
56670;SDS011;42545;50.054;8.306;2023-04-29T13:01:00;2.55;;;2.03;;
56670;SDS011;42545;50.054;8.306;2023-04-29T13:03:27;1.77;;;1.63;;
56670;SDS011;42545;50.054;8.306;2023-04-29T13:05:55;2.45;;;2.25;;
56670;SDS011;42545;50.054;8.306;2023-04-29T13:08:23;1.83;;;1.50;;
56670;SDS011;42545;50.054;8.306;2023-04-29T13:10:52;3.28;;;2.78;;
56670;SDS011;42545;50.054;8.306;2023-04-29T13:13:18;3.30;;;2.22;;
56670;SDS011;42545;50.054;8.306;2023-04-29T13:15:46;3.70;;;2.85;;
56670;SDS011;42545;50.054;8.306;2023-04-29T13:18:12;2.10;;;1.90;;
56670;SDS011;42545;50.054;8.306;2023-04-29T13:20:39;2.55;;;2.20;;
56670;SDS011;42545;50.054;8.306;2023-04-29T13:23:09;4.53;;;3.67;;
56670;SDS011;42545;50.054;8.306;2023-04-29T13:25:36;3.40;;;2.90;;
56670;SDS011;42545;50.054;8.306;2023-04-29T13:28:03;3.10;;;2.38;;
56670;SDS011;42545;50.054;8.306;2023-04-29T13:30:31;2.75;;;2.22;;
56670;SDS011;42545;50.054;8.306;2023-04-29T13:32:58;3.00;;;2.35;;
56670;SDS011;42545;50.054;8.306;2023-04-29T13:35:25;2.63;;;2.42;;
56670;SDS011;42545;50.054;8.306;2023-04-29T13:37:52;2.45;;;2.08;;
56670;SDS011;42545;50.054;8.306;2023-04-29T13:40:20;3.00;;;2.70;;
56670;SDS011;42545;50.054;8.306;2023-04-29T13:42:47;3.22;;;2.92;;
56670;SDS011;42545;50.054;8.306;2023-04-29T13:45:14;4.43;;;2.80;;
56670;SDS011;42545;50.054;8.306;2023-04-29T13:47:41;3.22;;;2.38;;
56670;SDS011;42545;50.054;8.306;2023-04-29T13:50:08;3.08;;;2.63;;
56670;SDS011;42545;50.054;8.306;2023-04-29T13:52:35;3.53;;;3.08;;
56670;SDS011;42545;50.054;8.306;2023-04-29T13:55:01;3.55;;;2.60;;
56670;SDS011;42545;50.054;8.306;2023-04-29T13:57:30;3.88;;;3.20;;
56670;SDS011;42545;50.054;8.306;2023-04-29T13:59:58;4.78;;;4.22;;
56670;SDS011;42545;50.054;8.306;2023-04-29T14:02:25;5.40;;;4.13;;
56670;SDS011;42545;50.054;8.306;2023-04-29T14:04:52;3.70;;;3.30;;
56670;SDS011;42545;50.054;8.306;2023-04-29T14:07:19;5.25;;;3.85;;
56670;SDS011;42545;50.054;8.306;2023-04-29T14:09:46;3.60;;;3.10;;
56670;SDS011;42545;50.054;8.306;2023-04-29T14:12:13;3.45;;;3.10;;
56670;SDS011;42545;50.054;8.306;2023-04-29T14:14:41;3.95;;;2.88;;
56670;SDS011;42545;50.054;8.306;2023-04-29T14:17:08;5.60;;;4.00;;
56670;SDS011;42545;50.054;8.306;2023-04-29T14:19:35;3.53;;;2.80;;
56670;SDS011;42545;50.054;8.306;2023-04-29T14:22:02;4.63;;;3.88;;
56670;SDS011;42545;50.054;8.306;2023-04-29T14:24:28;4.78;;;3.63;;
56670;SDS011;42545;50.054;8.306;2023-04-29T14:26:55;4.07;;;3.67;;
56670;SDS011;42545;50.054;8.306;2023-04-29T14:29:23;4.53;;;3.25;;
56670;SDS011;42545;50.054;8.306;2023-04-29T14:31:51;4.57;;;3.60;;
56670;SDS011;42545;50.054;8.306;2023-04-29T14:34:17;4.05;;;3.45;;
56670;SDS011;42545;50.054;8.306;2023-04-29T14:36:44;3.00;;;2.55;;
56670;SDS011;42545;50.054;8.306;2023-04-29T14:39:11;3.80;;;3.30;;
56670;SDS011;42545;50.054;8.306;2023-04-29T14:41:38;5.25;;;4.00;;
56670;SDS011;42545;50.054;8.306;2023-04-29T14:44:06;4.07;;;3.67;;
56670;SDS011;42545;50.054;8.306;2023-04-29T14:46:33;5.20;;;3.85;;
56670;SDS011;42545;50.054;8.306;2023-04-29T14:49:01;4.35;;;3.28;;
56670;SDS011;42545;50.054;8.306;2023-04-29T14:51:28;4.65;;;3.42;;
56670;SDS011;42545;50.054;8.306;2023-04-29T14:53:55;4.25;;;3.47;;
56670;SDS011;42545;50.054;8.306;2023-04-29T14:56:21;4.43;;;4.00;;